createdAt,value
2022-08-23T05:59:19.548Z,5.85
2022-08-23T06:01:50.217Z,8.07
2022-08-23T06:04:21.652Z,6.13
2022-08-23T06:06:50.671Z,7.47
2022-08-23T06:09:20.192Z,12.07
2022-08-23T06:11:51.494Z,22.95
2022-08-23T06:14:21.266Z,40.50
2022-08-23T06:16:55.562Z,55.90
2022-08-23T06:19:28.176Z,138.38
2022-08-23T06:22:20.273Z,243.85
2022-08-23T06:24:50.188Z,1999.90
2022-08-23T06:27:20.351Z,1999.90
2022-08-23T06:29:50.528Z,1999.90
2022-08-23T06:32:48.717Z,1999.90
2022-08-23T06:35:51.057Z,1999.90
2022-08-23T06:38:28.430Z,1999.90
2022-08-23T06:41:17.358Z,1999.90
2022-08-23T06:43:54.198Z,1999.90
2022-08-23T06:46:34.724Z,1999.90
2022-08-23T06:49:05.585Z,202.15
2022-08-23T06:51:36.329Z,115.82
2022-08-23T06:54:21.488Z,4.07
2022-08-23T06:57:01.349Z,6.15
2022-08-23T06:59:33.693Z,4.43
2022-08-23T07:02:04.157Z,5.60
2022-08-23T07:04:54.308Z,6.85
2022-08-23T07:07:41.285Z,5.10
2022-08-23T07:10:16.256Z,4.03
2022-08-23T07:12:45.692Z,7.78
2022-08-23T07:15:16.760Z,3.63
2022-08-23T07:17:47.369Z,4.38
2022-08-23T07:20:16.727Z,5.22
2022-08-23T07:22:47.123Z,3.35
2022-08-23T07:25:17.200Z,161.10
2022-08-23T07:27:50.288Z,15.13
2022-08-23T07:30:23.328Z,3.60
2022-08-23T07:32:53.388Z,3.97
2022-08-23T07:35:28.570Z,3.67
2022-08-23T07:38:00.677Z,3.60
2022-08-23T07:40:38.937Z,5.63
2022-08-23T07:43:09.133Z,3.78
2022-08-23T07:45:43.455Z,3.78
2022-08-23T07:48:14.481Z,2.45
2022-08-23T07:51:11.630Z,5.82
2022-08-23T07:53:45.796Z,4.05
2022-08-23T07:56:18.055Z,3.38
2022-08-23T07:59:16.489Z,6.20
2022-08-23T08:02:19.268Z,3.60
2022-08-23T08:04:48.032Z,5.53
2022-08-23T08:07:20.505Z,3.33
2022-08-23T08:09:57.831Z,3.38
2022-08-23T08:12:27.712Z,4.68
2022-08-23T08:14:58.891Z,4.03
2022-08-23T08:17:37.294Z,5.88
2022-08-23T08:20:37.091Z,304.02
2022-08-23T08:23:29.367Z,4.38
2022-08-23T08:26:18.319Z,5.15
2022-08-23T08:28:56.288Z,2.75
2022-08-23T08:31:27.440Z,4.45
2022-08-23T08:33:58.629Z,2.75
2022-08-23T08:36:33.798Z,2.55
2022-08-23T08:39:03.569Z,3.05
2022-08-23T08:41:50.841Z,5.88
2022-08-23T08:44:39.631Z,3.80
2022-08-23T08:47:14.852Z,6.72
2022-08-23T08:49:50.548Z,2.90
2022-08-23T08:52:25.312Z,4.13
2022-08-23T08:57:27.825Z,2.70
2022-08-23T09:00:01.853Z,2.47
2022-08-23T09:02:35.452Z,3.80
2022-08-23T09:07:50.291Z,3.70
2022-08-23T09:10:35.311Z,4.38
2022-08-23T09:13:37.334Z,2.63
2022-08-23T09:16:18.203Z,4.28
2022-08-23T09:18:47.992Z,7.65
2022-08-23T09:21:18.537Z,3.47
2022-08-23T09:24:00.366Z,3.33
2022-08-23T09:26:39.789Z,6.13
2022-08-23T09:29:23.876Z,2.30
2022-08-23T09:31:55.942Z,3.50
2022-08-23T09:34:42.123Z,3.30
2022-08-23T09:37:22.668Z,23.73
2022-08-23T09:39:55.650Z,2.83
2022-08-23T09:42:32.403Z,3.17
2022-08-23T09:47:43.366Z,6.75
2022-08-23T09:50:25.793Z,4.15
2022-08-23T09:53:04.298Z,4.38
2022-08-23T09:55:37.315Z,6.75
2022-08-23T09:58:17.468Z,3.10
2022-08-23T10:01:03.028Z,3.17
2022-08-23T10:03:31.809Z,3.88
2022-08-23T10:06:12.171Z,3.10
2022-08-23T10:08:54.555Z,5.03
2022-08-23T10:11:29.724Z,3.15
2022-08-23T10:13:59.356Z,3.08
2022-08-23T10:16:41.253Z,55.50
2022-08-23T10:19:23.171Z,7.32
2022-08-23T10:22:04.736Z,4.72
2022-08-23T10:24:45.815Z,4.40
2022-08-23T10:27:49.204Z,295.35
2022-08-23T10:30:24.244Z,3.63
2022-08-23T10:33:08.087Z,4.07
2022-08-23T10:35:48.748Z,2.83
2022-08-23T10:38:41.286Z,3.22
2022-08-23T10:41:31.764Z,2.95
2022-08-23T10:44:09.387Z,2.45
2022-08-23T10:46:44.877Z,6.25
2022-08-23T10:49:16.552Z,2.50
2022-08-23T10:51:51.771Z,2.45
2022-08-23T10:54:46.087Z,5.75
2022-08-23T10:59:53.144Z,5.18
2022-08-23T11:02:33.844Z,3.20
2022-08-23T11:05:26.769Z,3.13
2022-08-23T11:08:01.240Z,4.28
2022-08-23T11:10:35.668Z,2.50
2022-08-23T11:13:09.755Z,3.15
2022-08-23T11:15:46.124Z,4.13
2022-08-23T11:18:39.571Z,2.67
2022-08-23T11:21:12.482Z,2.55
2022-08-23T11:23:55.621Z,14.18
2022-08-23T11:27:06.708Z,2.40
2022-08-23T11:29:43.843Z,3.23
2022-08-23T11:32:46.890Z,2.20
2022-08-23T11:35:43.008Z,7.88
2022-08-23T11:38:13.809Z,14.38
2022-08-23T11:41:00.328Z,6.45
2022-08-23T11:43:37.795Z,56.25
2022-08-23T11:46:42.208Z,4.35
2022-08-23T11:49:44.192Z,3.45
2022-08-23T11:52:28.774Z,3.60
2022-08-23T11:55:34.118Z,2.40
2022-08-23T11:58:17.747Z,3.97
2022-08-23T12:01:06.595Z,2.47
2022-08-23T12:03:45.896Z,4.45
2022-08-23T12:06:50.451Z,5.43
2022-08-23T12:09:58.956Z,6.28
2022-08-23T12:12:37.838Z,2.55
2022-08-23T12:15:12.068Z,3.25
2022-08-23T12:18:12.350Z,2.58
2022-08-23T12:20:48.200Z,2.58
2022-08-23T12:23:22.473Z,3.20
2022-08-23T12:26:08.828Z,2.55
2022-08-23T12:28:43.750Z,1129.20
2022-08-23T12:31:21.388Z,3.05
2022-08-23T12:34:05.157Z,9.18
2022-08-23T12:36:42.631Z,4.70
2022-08-23T12:39:26.569Z,4.03
2022-08-23T12:41:59.679Z,3.25
2022-08-23T12:44:30.791Z,3.75
2022-08-23T12:47:14.336Z,8.40
2022-08-23T12:49:43.995Z,4.82
2022-08-23T12:52:14.507Z,2.83
2022-08-23T12:54:45.332Z,5.50
2022-08-23T12:57:19.333Z,10.40
2022-08-23T13:00:01.933Z,16.13
2022-08-23T13:02:51.926Z,9.95
2022-08-23T13:05:28.156Z,93.10
2022-08-23T13:07:58.718Z,3.17
2022-08-23T13:10:27.792Z,5.20
2022-08-23T13:12:56.696Z,3.85
2022-08-23T13:15:45.790Z,13.32
2022-08-23T13:18:25.987Z,5.57
2022-08-23T13:21:19.588Z,2.92
2022-08-23T13:23:50.168Z,2.50
2022-08-23T13:26:38.934Z,3.17
2022-08-23T13:29:14.791Z,2.88
2022-08-23T13:31:52.091Z,2.72
2022-08-23T13:34:39.693Z,1999.90
2022-08-23T13:37:23.947Z,2.87
2022-08-23T13:39:56.212Z,3.85
2022-08-23T13:42:35.413Z,3.33
2022-08-23T13:45:14.404Z,3.97
2022-08-23T13:47:49.387Z,2.35
2022-08-23T13:50:24.844Z,9.55
2022-08-23T13:53:13.839Z,3.75
2022-08-23T13:55:46.773Z,2.10
2022-08-23T13:58:25.208Z,4.32
2022-08-23T14:00:55.313Z,3.83
2022-08-23T14:03:25.255Z,3.72
2022-08-23T14:05:54.297Z,3.80
2022-08-23T14:08:23.213Z,18.52
2022-08-23T14:10:53.535Z,2.53
2022-08-23T14:13:25.403Z,2.70
2022-08-23T14:15:56.029Z,3.33
2022-08-23T14:18:25.529Z,2.67
2022-08-23T14:20:54.287Z,2.50
2022-08-23T14:23:22.987Z,3.55
2022-08-23T14:25:56.408Z,3.65
2022-08-23T14:28:31.393Z,3.05
2022-08-23T14:31:00.280Z,5.75
2022-08-23T14:33:28.990Z,8.15
2022-08-23T14:35:57.671Z,6.32
2022-08-23T14:38:26.473Z,4.72
2022-08-23T14:40:59.173Z,2.80
2022-08-23T14:43:28.962Z,4.10
2022-08-23T14:45:58.759Z,2.35
2022-08-23T14:48:27.569Z,2.58
2022-08-23T14:50:57.237Z,3.25
2022-08-23T14:53:28.988Z,2.97
2022-08-23T14:56:20.471Z,2.08
2022-08-23T14:58:49.002Z,4.10
2022-08-23T15:01:18.793Z,2.22
2022-08-23T15:03:48.291Z,3.88
2022-08-23T15:06:19.655Z,3.17
2022-08-23T15:08:49.046Z,2.10
2022-08-23T15:14:11.124Z,2.38
2022-08-23T15:16:39.975Z,2.92
2022-08-23T15:19:08.756Z,2.22
2022-08-23T15:21:37.450Z,4.95
2022-08-23T15:24:06.676Z,3.95
2022-08-23T15:26:37.219Z,4.65
2022-08-23T15:29:06.413Z,2.22
2022-08-23T15:31:35.173Z,3.17
2022-08-23T15:34:03.792Z,2.97
2022-08-23T15:36:43.171Z,2.17
2022-08-23T15:39:11.752Z,3.47
2022-08-23T15:41:41.936Z,2.67
2022-08-23T15:44:10.597Z,1.80
2022-08-23T15:46:39.648Z,118.38
2022-08-23T15:49:14.354Z,2.22
2022-08-23T15:51:43.052Z,4.72
2022-08-23T15:54:11.960Z,3.83
2022-08-23T15:56:45.460Z,1.95
2022-08-23T15:59:15.741Z,4.95
2022-08-23T16:01:44.831Z,2.78
2022-08-23T16:04:13.744Z,3.08
2022-08-23T16:06:45.264Z,50.88
2022-08-23T16:09:19.568Z,2.17
2022-08-23T16:11:49.869Z,2.10
2022-08-23T16:14:18.857Z,3.58
2022-08-23T16:16:48.566Z,1.90
2022-08-23T16:19:17.534Z,2.00
2022-08-23T16:21:51.894Z,3.33
2022-08-23T16:24:20.527Z,1.77
2022-08-23T16:26:54.986Z,2.10
2022-08-23T16:29:24.066Z,2.65
2022-08-23T16:31:52.656Z,1.85
2022-08-23T16:34:22.081Z,1.50
2022-08-23T16:36:56.539Z,2.00
2022-08-23T16:39:26.079Z,2.25
2022-08-23T16:41:56.372Z,2.78
2022-08-23T16:44:25.131Z,4.45
2022-08-23T16:46:53.766Z,3.40
2022-08-23T16:49:23.393Z,2.72
2022-08-23T16:51:52.704Z,2.65
2022-08-23T16:54:21.962Z,2.65
2022-08-23T16:56:50.527Z,2.75
2022-08-23T16:59:20.576Z,2.53
2022-08-23T17:01:52.180Z,4.82
2022-08-23T17:04:21.819Z,3.80
2022-08-23T17:06:50.456Z,2.92
2022-08-23T17:09:19.054Z,2.00
2022-08-23T17:11:47.802Z,1.90
2022-08-23T17:14:16.861Z,2.05
2022-08-23T17:16:47.100Z,7.80
2022-08-23T17:19:16.087Z,1.90
2022-08-23T17:21:45.182Z,1.73
2022-08-23T17:24:13.861Z,3.53
2022-08-23T17:26:42.518Z,2.10
2022-08-23T17:29:12.371Z,3.95
2022-08-23T17:31:41.094Z,5.70
2022-08-23T17:34:11.369Z,2.40
2022-08-23T17:36:42.767Z,2.67
2022-08-23T17:39:18.312Z,2.13
2022-08-23T17:41:47.035Z,3.47
2022-08-23T17:44:16.379Z,1.83
2022-08-23T17:46:46.940Z,3.85
2022-08-23T17:49:20.764Z,4.20
2022-08-23T17:51:49.552Z,2.05
2022-08-23T17:54:18.617Z,3.70
2022-08-23T17:56:49.954Z,364.60
2022-08-23T17:59:19.947Z,2.65
2022-08-23T18:01:48.635Z,6.55
2022-08-23T18:04:19.102Z,3.17
2022-08-23T18:06:48.128Z,3.65
2022-08-23T18:09:17.104Z,4.38
2022-08-23T18:11:45.881Z,17.70
2022-08-23T18:14:14.491Z,4.75
2022-08-23T18:16:44.127Z,2.38
2022-08-23T18:19:14.711Z,2.40
2022-08-23T18:21:45.502Z,77.00
2022-08-23T18:24:14.725Z,4.45
2022-08-23T18:27:00.770Z,2.72
2022-08-23T18:29:29.721Z,4.63
2022-08-23T18:31:58.333Z,2.88
2022-08-23T18:34:27.033Z,3.38
2022-08-23T18:36:57.163Z,2.67
2022-08-23T18:39:31.950Z,3.88
2022-08-23T18:42:01.533Z,4.55
2022-08-23T18:44:30.418Z,5.60
2022-08-23T18:46:59.540Z,10.90
2022-08-23T18:49:28.142Z,7.40
2022-08-23T18:51:58.173Z,3.50
2022-08-23T18:54:28.912Z,2.97
2022-08-23T18:57:00.791Z,3.90
2022-08-23T18:59:29.424Z,3.13
2022-08-23T19:01:58.143Z,3.75
2022-08-23T19:04:27.658Z,5.07
2022-08-23T19:06:58.507Z,3.63
2022-08-23T19:09:27.108Z,3.13
2022-08-23T19:11:56.017Z,5.00
2022-08-23T19:14:24.627Z,3.25
2022-08-23T19:16:53.326Z,4.18
2022-08-23T19:19:22.158Z,3.83
2022-08-23T19:21:51.258Z,3.47
2022-08-23T19:24:21.302Z,3.53
2022-08-23T19:26:49.963Z,2.78
2022-08-23T19:29:20.664Z,3.03
2022-08-23T19:31:50.395Z,3.17
2022-08-23T19:34:22.287Z,3.17
2022-08-23T19:36:59.428Z,3.08
2022-08-23T19:39:31.486Z,4.85
2022-08-23T19:42:00.201Z,8.30
2022-08-23T19:44:28.968Z,2.92
2022-08-23T19:46:57.838Z,2.38
2022-08-23T19:49:26.446Z,2.97
2022-08-23T19:51:55.293Z,2.90
2022-08-23T19:54:23.890Z,3.22
2022-08-23T19:56:58.161Z,3.35
2022-08-23T19:59:30.342Z,5.10
2022-08-23T20:02:00.329Z,2.80
2022-08-23T20:04:31.158Z,3.13
2022-08-23T20:07:01.596Z,4.05
2022-08-23T20:09:31.766Z,3.83
2022-08-23T20:12:02.525Z,5.65
2022-08-23T20:14:33.268Z,2.92
2022-08-23T20:17:04.572Z,5.45
2022-08-23T20:19:33.189Z,3.90
2022-08-23T20:22:15.871Z,4.15
2022-08-23T20:30:01.590Z,3.95
2022-08-23T20:32:31.366Z,3.03
2022-08-23T20:35:00.132Z,5.43
2022-08-23T20:37:29.016Z,2.50
2022-08-23T20:39:57.632Z,3.78
